sensor_id;sensor_type;location;lat;lon;timestamp;P1;durP1;ratioP1;P2;durP2;ratioP2
1699;SDS011;847;48.058;7.810;2022-07-17T00:00:29;7.17;;;3.93;;
1699;SDS011;847;48.058;7.810;2022-07-17T00:02:56;6.67;;;4.27;;
1699;SDS011;847;48.058;7.810;2022-07-17T00:05:23;7.20;;;3.73;;
1699;SDS011;847;48.058;7.810;2022-07-17T00:07:51;4.27;;;3.43;;
1699;SDS011;847;48.058;7.810;2022-07-17T00:10:18;8.33;;;3.50;;
1699;SDS011;847;48.058;7.810;2022-07-17T00:12:45;9.57;;;4.00;;
1699;SDS011;847;48.058;7.810;2022-07-17T00:15:12;9.13;;;3.73;;
1699;SDS011;847;48.058;7.810;2022-07-17T00:17:39;6.17;;;3.40;;
1699;SDS011;847;48.058;7.810;2022-07-17T00:20:06;13.33;;;4.47;;
1699;SDS011;847;48.058;7.810;2022-07-17T00:22:33;6.20;;;3.53;;
1699;SDS011;847;48.058;7.810;2022-07-17T00:25:02;10.47;;;3.50;;
1699;SDS011;847;48.058;7.810;2022-07-17T00:27:30;4.97;;;3.27;;
1699;SDS011;847;48.058;7.810;2022-07-17T00:29:56;7.50;;;3.90;;
1699;SDS011;847;48.058;7.810;2022-07-17T00:32:23;6.80;;;4.33;;
1699;SDS011;847;48.058;7.810;2022-07-17T00:34:50;4.63;;;3.83;;
1699;SDS011;847;48.058;7.810;2022-07-17T00:37:17;7.30;;;3.33;;
1699;SDS011;847;48.058;7.810;2022-07-17T00:39:44;7.30;;;3.30;;
1699;SDS011;847;48.058;7.810;2022-07-17T00:42:12;9.43;;;3.40;;
1699;SDS011;847;48.058;7.810;2022-07-17T00:44:41;7.63;;;4.70;;
1699;SDS011;847;48.058;7.810;2022-07-17T00:47:12;7.63;;;3.53;;
1699;SDS011;847;48.058;7.810;2022-07-17T00:49:39;8.13;;;3.80;;
1699;SDS011;847;48.058;7.810;2022-07-17T00:52:06;10.40;;;3.50;;
1699;SDS011;847;48.058;7.810;2022-07-17T00:54:34;10.43;;;3.77;;
1699;SDS011;847;48.058;7.810;2022-07-17T00:57:03;6.43;;;4.53;;
1699;SDS011;847;48.058;7.810;2022-07-17T00:59:33;6.57;;;3.20;;
1699;SDS011;847;48.058;7.810;2022-07-17T01:02:02;6.27;;;4.10;;
1699;SDS011;847;48.058;7.810;2022-07-17T01:04:30;9.27;;;3.60;;
1699;SDS011;847;48.058;7.810;2022-07-17T01:06:57;7.00;;;3.43;;
1699;SDS011;847;48.058;7.810;2022-07-17T01:09:24;5.43;;;3.30;;
1699;SDS011;847;48.058;7.810;2022-07-17T01:11:50;4.27;;;3.53;;
1699;SDS011;847;48.058;7.810;2022-07-17T01:14:17;5.07;;;3.23;;
1699;SDS011;847;48.058;7.810;2022-07-17T01:16:46;8.03;;;3.90;;
1699;SDS011;847;48.058;7.810;2022-07-17T01:19:13;5.13;;;3.23;;
1699;SDS011;847;48.058;7.810;2022-07-17T01:21:41;4.20;;;3.10;;
1699;SDS011;847;48.058;7.810;2022-07-17T01:24:09;5.57;;;3.27;;
1699;SDS011;847;48.058;7.810;2022-07-17T01:26:37;4.13;;;3.73;;
1699;SDS011;847;48.058;7.810;2022-07-17T01:29:06;10.83;;;4.67;;
1699;SDS011;847;48.058;7.810;2022-07-17T01:31:35;6.30;;;3.83;;
1699;SDS011;847;48.058;7.810;2022-07-17T01:34:02;4.60;;;3.53;;
1699;SDS011;847;48.058;7.810;2022-07-17T01:36:30;3.90;;;3.60;;
1699;SDS011;847;48.058;7.810;2022-07-17T01:38:59;4.50;;;3.23;;
1699;SDS011;847;48.058;7.810;2022-07-17T01:41:25;6.03;;;3.40;;
1699;SDS011;847;48.058;7.810;2022-07-17T01:43:52;4.70;;;3.30;;
1699;SDS011;847;48.058;7.810;2022-07-17T01:46:19;5.10;;;3.10;;
1699;SDS011;847;48.058;7.810;2022-07-17T01:48:46;4.67;;;3.47;;
1699;SDS011;847;48.058;7.810;2022-07-17T01:51:12;4.40;;;3.33;;
1699;SDS011;847;48.058;7.810;2022-07-17T01:53:39;4.53;;;3.47;;
1699;SDS011;847;48.058;7.810;2022-07-17T01:56:07;3.80;;;3.50;;
1699;SDS011;847;48.058;7.810;2022-07-17T01:58:34;4.67;;;3.63;;
1699;SDS011;847;48.058;7.810;2022-07-17T02:01:01;4.50;;;3.70;;
1699;SDS011;847;48.058;7.810;2022-07-17T02:03:28;4.83;;;3.67;;
1699;SDS011;847;48.058;7.810;2022-07-17T02:05:55;6.07;;;3.90;;
1699;SDS011;847;48.058;7.810;2022-07-17T02:08:21;5.47;;;3.60;;
1699;SDS011;847;48.058;7.810;2022-07-17T02:10:48;3.60;;;3.30;;
1699;SDS011;847;48.058;7.810;2022-07-17T02:13:16;4.03;;;3.63;;
1699;SDS011;847;48.058;7.810;2022-07-17T02:15:43;6.80;;;4.43;;
1699;SDS011;847;48.058;7.810;2022-07-17T02:18:10;4.47;;;3.50;;
1699;SDS011;847;48.058;7.810;2022-07-17T02:20:36;5.13;;;4.17;;
1699;SDS011;847;48.058;7.810;2022-07-17T02:23:03;4.50;;;4.10;;
1699;SDS011;847;48.058;7.810;2022-07-17T02:25:30;6.33;;;3.87;;
1699;SDS011;847;48.058;7.810;2022-07-17T02:27:57;5.63;;;3.93;;
1699;SDS011;847;48.058;7.810;2022-07-17T02:30:25;4.63;;;3.50;;
1699;SDS011;847;48.058;7.810;2022-07-17T02:32:51;6.20;;;4.10;;
1699;SDS011;847;48.058;7.810;2022-07-17T02:35:18;7.03;;;3.70;;
1699;SDS011;847;48.058;7.810;2022-07-17T02:37:45;4.60;;;4.10;;
1699;SDS011;847;48.058;7.810;2022-07-17T02:40:12;4.53;;;4.00;;
1699;SDS011;847;48.058;7.810;2022-07-17T02:42:39;4.03;;;3.60;;
1699;SDS011;847;48.058;7.810;2022-07-17T02:45:06;5.60;;;4.60;;
1699;SDS011;847;48.058;7.810;2022-07-17T02:47:35;4.63;;;3.93;;
1699;SDS011;847;48.058;7.810;2022-07-17T02:50:03;4.17;;;3.87;;
1699;SDS011;847;48.058;7.810;2022-07-17T02:52:31;4.83;;;4.00;;
1699;SDS011;847;48.058;7.810;2022-07-17T02:54:57;5.70;;;3.93;;
1699;SDS011;847;48.058;7.810;2022-07-17T02:57:24;3.57;;;3.10;;
1699;SDS011;847;48.058;7.810;2022-07-17T02:59:51;4.00;;;3.50;;
1699;SDS011;847;48.058;7.810;2022-07-17T03:02:18;3.50;;;3.23;;
1699;SDS011;847;48.058;7.810;2022-07-17T03:04:46;4.53;;;3.67;;
1699;SDS011;847;48.058;7.810;2022-07-17T03:07:13;5.80;;;4.00;;
1699;SDS011;847;48.058;7.810;2022-07-17T03:09:40;6.07;;;4.17;;
1699;SDS011;847;48.058;7.810;2022-07-17T03:12:07;5.23;;;4.30;;
1699;SDS011;847;48.058;7.810;2022-07-17T03:14:34;4.63;;;4.13;;
1699;SDS011;847;48.058;7.810;2022-07-17T03:17:01;4.67;;;4.27;;
1699;SDS011;847;48.058;7.810;2022-07-17T03:19:27;4.43;;;4.03;;
1699;SDS011;847;48.058;7.810;2022-07-17T03:21:56;5.67;;;4.20;;
1699;SDS011;847;48.058;7.810;2022-07-17T03:24:22;4.00;;;3.70;;
1699;SDS011;847;48.058;7.810;2022-07-17T03:26:49;5.37;;;3.90;;
1699;SDS011;847;48.058;7.810;2022-07-17T03:29:16;5.07;;;4.03;;
1699;SDS011;847;48.058;7.810;2022-07-17T03:31:43;5.10;;;4.60;;
1699;SDS011;847;48.058;7.810;2022-07-17T03:34:10;4.83;;;4.13;;
1699;SDS011;847;48.058;7.810;2022-07-17T03:36:36;4.40;;;4.00;;
1699;SDS011;847;48.058;7.810;2022-07-17T03:39:05;4.17;;;3.70;;
1699;SDS011;847;48.058;7.810;2022-07-17T03:41:32;6.00;;;3.70;;
1699;SDS011;847;48.058;7.810;2022-07-17T03:43:58;4.30;;;3.30;;
1699;SDS011;847;48.058;7.810;2022-07-17T03:46:26;7.13;;;4.27;;
1699;SDS011;847;48.058;7.810;2022-07-17T03:48:53;4.70;;;4.27;;
1699;SDS011;847;48.058;7.810;2022-07-17T03:51:19;5.93;;;4.17;;
1699;SDS011;847;48.058;7.810;2022-07-17T03:53:46;6.00;;;4.93;;
1699;SDS011;847;48.058;7.810;2022-07-17T03:56:14;5.10;;;4.07;;
1699;SDS011;847;48.058;7.810;2022-07-17T03:58:41;4.43;;;4.00;;
1699;SDS011;847;48.058;7.810;2022-07-17T04:01:08;4.70;;;4.27;;
1699;SDS011;847;48.058;7.810;2022-07-17T04:03:35;6.53;;;4.07;;
1699;SDS011;847;48.058;7.810;2022-07-17T04:06:02;4.37;;;3.97;;
1699;SDS011;847;48.058;7.810;2022-07-17T04:08:28;5.13;;;4.00;;
1699;SDS011;847;48.058;7.810;2022-07-17T04:10:55;4.17;;;3.87;;
1699;SDS011;847;48.058;7.810;2022-07-17T04:13:23;3.70;;;3.40;;
1699;SDS011;847;48.058;7.810;2022-07-17T04:15:50;4.40;;;4.10;;
1699;SDS011;847;48.058;7.810;2022-07-17T04:18:21;4.43;;;4.13;;
1699;SDS011;847;48.058;7.810;2022-07-17T04:20:50;5.90;;;3.80;;
1699;SDS011;847;48.058;7.810;2022-07-17T04:23:17;5.90;;;4.20;;
1699;SDS011;847;48.058;7.810;2022-07-17T04:25:45;5.13;;;4.27;;
1699;SDS011;847;48.058;7.810;2022-07-17T04:28:11;5.57;;;4.23;;
1699;SDS011;847;48.058;7.810;2022-07-17T04:30:40;6.30;;;4.20;;
1699;SDS011;847;48.058;7.810;2022-07-17T04:33:07;5.03;;;3.30;;
1699;SDS011;847;48.058;7.810;2022-07-17T04:35:34;4.40;;;4.00;;
1699;SDS011;847;48.058;7.810;2022-07-17T04:38:01;10.13;;;4.47;;
1699;SDS011;847;48.058;7.810;2022-07-17T04:40:29;4.33;;;3.87;;
1699;SDS011;847;48.058;7.810;2022-07-17T04:42:56;6.33;;;3.90;;
1699;SDS011;847;48.058;7.810;2022-07-17T04:45:23;4.50;;;3.70;;
1699;SDS011;847;48.058;7.810;2022-07-17T04:47:51;7.87;;;4.07;;
1699;SDS011;847;48.058;7.810;2022-07-17T04:50:18;8.83;;;4.33;;
1699;SDS011;847;48.058;7.810;2022-07-17T04:52:44;4.43;;;4.03;;
1699;SDS011;847;48.058;7.810;2022-07-17T04:55:12;5.17;;;3.97;;
1699;SDS011;847;48.058;7.810;2022-07-17T04:57:39;9.67;;;4.10;;
1699;SDS011;847;48.058;7.810;2022-07-17T05:00:06;8.00;;;3.97;;
1699;SDS011;847;48.058;7.810;2022-07-17T05:02:35;4.70;;;4.03;;
1699;SDS011;847;48.058;7.810;2022-07-17T05:05:03;5.47;;;2.83;;
1699;SDS011;847;48.058;7.810;2022-07-17T05:07:31;3.57;;;3.27;;
1699;SDS011;847;48.058;7.810;2022-07-17T05:09:58;4.27;;;3.07;;
1699;SDS011;847;48.058;7.810;2022-07-17T05:12:24;4.10;;;3.70;;
1699;SDS011;847;48.058;7.810;2022-07-17T05:14:51;3.97;;;3.20;;
1699;SDS011;847;48.058;7.810;2022-07-17T05:17:18;4.20;;;3.80;;
1699;SDS011;847;48.058;7.810;2022-07-17T05:19:45;3.90;;;3.50;;
1699;SDS011;847;48.058;7.810;2022-07-17T05:22:14;4.30;;;3.37;;
1699;SDS011;847;48.058;7.810;2022-07-17T05:24:41;4.37;;;3.40;;
1699;SDS011;847;48.058;7.810;2022-07-17T05:27:07;3.40;;;3.20;;
1699;SDS011;847;48.058;7.810;2022-07-17T05:29:34;3.40;;;3.10;;
1699;SDS011;847;48.058;7.810;2022-07-17T05:32:01;3.50;;;3.20;;
1699;SDS011;847;48.058;7.810;2022-07-17T05:34:28;4.43;;;3.47;;
1699;SDS011;847;48.058;7.810;2022-07-17T05:36:54;3.90;;;3.30;;
1699;SDS011;847;48.058;7.810;2022-07-17T05:39:23;3.67;;;3.10;;
1699;SDS011;847;48.058;7.810;2022-07-17T05:41:49;3.93;;;3.60;;
1699;SDS011;847;48.058;7.810;2022-07-17T05:44:16;5.97;;;2.80;;
1699;SDS011;847;48.058;7.810;2022-07-17T05:46:43;3.50;;;3.20;;
1699;SDS011;847;48.058;7.810;2022-07-17T05:49:09;3.30;;;3.00;;
1699;SDS011;847;48.058;7.810;2022-07-17T05:51:36;4.80;;;3.20;;
1699;SDS011;847;48.058;7.810;2022-07-17T05:54:03;3.53;;;3.23;;
1699;SDS011;847;48.058;7.810;2022-07-17T05:56:31;3.40;;;3.07;;
1699;SDS011;847;48.058;7.810;2022-07-17T05:58:58;6.77;;;3.23;;
1699;SDS011;847;48.058;7.810;2022-07-17T06:01:25;3.50;;;3.20;;
1699;SDS011;847;48.058;7.810;2022-07-17T06:03:51;3.17;;;2.90;;
1699;SDS011;847;48.058;7.810;2022-07-17T06:06:18;3.63;;;3.33;;
1699;SDS011;847;48.058;7.810;2022-07-17T06:08:46;5.30;;;3.13;;
1699;SDS011;847;48.058;7.810;2022-07-17T06:11:12;3.43;;;3.17;;
1699;SDS011;847;48.058;7.810;2022-07-17T06:13:41;3.27;;;2.90;;
1699;SDS011;847;48.058;7.810;2022-07-17T06:16:07;3.30;;;3.00;;
1699;SDS011;847;48.058;7.810;2022-07-17T06:18:34;3.20;;;2.93;;
1699;SDS011;847;48.058;7.810;2022-07-17T06:21:01;3.20;;;2.83;;
1699;SDS011;847;48.058;7.810;2022-07-17T06:23:28;2.87;;;2.60;;
1699;SDS011;847;48.058;7.810;2022-07-17T06:25:55;3.33;;;3.00;;
1699;SDS011;847;48.058;7.810;2022-07-17T06:28:22;3.67;;;2.97;;
1699;SDS011;847;48.058;7.810;2022-07-17T06:30:50;2.80;;;2.60;;
1699;SDS011;847;48.058;7.810;2022-07-17T06:33:17;2.60;;;2.40;;
1699;SDS011;847;48.058;7.810;2022-07-17T06:35:43;3.37;;;3.07;;
1699;SDS011;847;48.058;7.810;2022-07-17T06:38:10;4.00;;;2.90;;
1699;SDS011;847;48.058;7.810;2022-07-17T06:40:37;3.73;;;2.70;;
1699;SDS011;847;48.058;7.810;2022-07-17T06:43:04;4.50;;;3.03;;
1699;SDS011;847;48.058;7.810;2022-07-17T06:45:32;3.30;;;3.10;;
1699;SDS011;847;48.058;7.810;2022-07-17T06:48:00;9.30;;;3.77;;
1699;SDS011;847;48.058;7.810;2022-07-17T06:50:27;3.90;;;2.57;;
1699;SDS011;847;48.058;7.810;2022-07-17T06:52:54;3.37;;;3.07;;
1699;SDS011;847;48.058;7.810;2022-07-17T06:55:23;4.00;;;3.27;;
1699;SDS011;847;48.058;7.810;2022-07-17T06:57:49;3.93;;;2.87;;
1699;SDS011;847;48.058;7.810;2022-07-17T07:00:16;3.43;;;2.97;;
1699;SDS011;847;48.058;7.810;2022-07-17T07:02:43;3.30;;;3.03;;
1699;SDS011;847;48.058;7.810;2022-07-17T07:05:11;3.17;;;2.97;;
1699;SDS011;847;48.058;7.810;2022-07-17T07:07:38;3.90;;;2.80;;
1699;SDS011;847;48.058;7.810;2022-07-17T07:10:06;3.20;;;2.37;;
1699;SDS011;847;48.058;7.810;2022-07-17T07:12:33;3.73;;;2.90;;
1699;SDS011;847;48.058;7.810;2022-07-17T07:15:00;3.03;;;2.70;;
1699;SDS011;847;48.058;7.810;2022-07-17T07:17:28;2.70;;;2.40;;
1699;SDS011;847;48.058;7.810;2022-07-17T07:19:56;4.93;;;4.53;;
1699;SDS011;847;48.058;7.810;2022-07-17T07:22:24;3.77;;;2.60;;
1699;SDS011;847;48.058;7.810;2022-07-17T07:24:51;2.87;;;2.57;;
1699;SDS011;847;48.058;7.810;2022-07-17T07:27:18;3.30;;;3.10;;
1699;SDS011;847;48.058;7.810;2022-07-17T07:29:44;5.90;;;2.83;;
1699;SDS011;847;48.058;7.810;2022-07-17T07:32:12;4.57;;;3.00;;
1699;SDS011;847;48.058;7.810;2022-07-17T07:34:39;3.17;;;2.93;;
1699;SDS011;847;48.058;7.810;2022-07-17T07:37:06;2.70;;;2.50;;
1699;SDS011;847;48.058;7.810;2022-07-17T07:39:34;4.13;;;3.40;;
1699;SDS011;847;48.058;7.810;2022-07-17T07:42:00;4.83;;;2.47;;
1699;SDS011;847;48.058;7.810;2022-07-17T07:44:27;4.50;;;3.17;;
1699;SDS011;847;48.058;7.810;2022-07-17T07:46:55;4.67;;;2.90;;
1699;SDS011;847;48.058;7.810;2022-07-17T07:49:21;3.87;;;2.93;;
1699;SDS011;847;48.058;7.810;2022-07-17T07:51:48;2.90;;;2.63;;
1699;SDS011;847;48.058;7.810;2022-07-17T07:54:15;3.70;;;2.70;;
1699;SDS011;847;48.058;7.810;2022-07-17T07:56:43;2.90;;;2.53;;
1699;SDS011;847;48.058;7.810;2022-07-17T07:59:10;2.90;;;2.60;;
1699;SDS011;847;48.058;7.810;2022-07-17T08:01:37;4.40;;;2.63;;
1699;SDS011;847;48.058;7.810;2022-07-17T08:04:03;5.27;;;3.40;;
1699;SDS011;847;48.058;7.810;2022-07-17T08:06:31;3.93;;;2.53;;
1699;SDS011;847;48.058;7.810;2022-07-17T08:08:58;2.83;;;2.50;;
1699;SDS011;847;48.058;7.810;2022-07-17T08:11:25;3.00;;;2.43;;
1699;SDS011;847;48.058;7.810;2022-07-17T08:13:53;3.03;;;2.63;;
1699;SDS011;847;48.058;7.810;2022-07-17T08:16:20;4.53;;;2.93;;
1699;SDS011;847;48.058;7.810;2022-07-17T08:18:46;2.97;;;2.67;;
1699;SDS011;847;48.058;7.810;2022-07-17T08:21:13;4.67;;;3.37;;
1699;SDS011;847;48.058;7.810;2022-07-17T08:23:40;3.60;;;3.00;;
1699;SDS011;847;48.058;7.810;2022-07-17T08:26:06;5.10;;;3.23;;
1699;SDS011;847;48.058;7.810;2022-07-17T08:28:33;4.90;;;2.67;;
1699;SDS011;847;48.058;7.810;2022-07-17T08:31:01;5.30;;;3.10;;
1699;SDS011;847;48.058;7.810;2022-07-17T08:33:28;3.00;;;2.67;;
1699;SDS011;847;48.058;7.810;2022-07-17T08:35:55;6.30;;;2.77;;
1699;SDS011;847;48.058;7.810;2022-07-17T08:38:21;3.13;;;2.93;;
1699;SDS011;847;48.058;7.810;2022-07-17T08:40:48;3.93;;;3.07;;
1699;SDS011;847;48.058;7.810;2022-07-17T08:43:18;4.60;;;2.93;;
1699;SDS011;847;48.058;7.810;2022-07-17T08:45:45;4.47;;;3.40;;
1699;SDS011;847;48.058;7.810;2022-07-17T08:48:16;3.87;;;2.77;;
1699;SDS011;847;48.058;7.810;2022-07-17T08:50:44;3.03;;;2.73;;
1699;SDS011;847;48.058;7.810;2022-07-17T08:53:12;3.63;;;2.70;;
1699;SDS011;847;48.058;7.810;2022-07-17T08:55:38;4.10;;;3.80;;
1699;SDS011;847;48.058;7.810;2022-07-17T08:58:05;5.17;;;3.20;;
1699;SDS011;847;48.058;7.810;2022-07-17T09:00:32;3.60;;;3.03;;
1699;SDS011;847;48.058;7.810;2022-07-17T09:02:59;4.37;;;3.00;;
1699;SDS011;847;48.058;7.810;2022-07-17T09:05:29;5.23;;;2.87;;
1699;SDS011;847;48.058;7.810;2022-07-17T09:07:58;3.83;;;3.47;;
1699;SDS011;847;48.058;7.810;2022-07-17T09:10:32;3.37;;;2.93;;
1699;SDS011;847;48.058;7.810;2022-07-17T09:13:01;6.70;;;3.10;;
1699;SDS011;847;48.058;7.810;2022-07-17T09:15:38;3.10;;;2.80;;
1699;SDS011;847;48.058;7.810;2022-07-17T09:18:05;3.17;;;2.87;;
1699;SDS011;847;48.058;7.810;2022-07-17T09:20:33;2.77;;;2.53;;
1699;SDS011;847;48.058;7.810;2022-07-17T09:23:02;3.40;;;3.10;;
1699;SDS011;847;48.058;7.810;2022-07-17T09:25:31;4.40;;;2.57;;
1699;SDS011;847;48.058;7.810;2022-07-17T09:28:00;3.60;;;2.77;;
1699;SDS011;847;48.058;7.810;2022-07-17T09:30:28;4.50;;;3.13;;
1699;SDS011;847;48.058;7.810;2022-07-17T09:32:56;3.30;;;3.00;;
1699;SDS011;847;48.058;7.810;2022-07-17T09:35:23;3.70;;;3.37;;
1699;SDS011;847;48.058;7.810;2022-07-17T09:37:52;6.07;;;3.10;;
1699;SDS011;847;48.058;7.810;2022-07-17T09:40:19;4.93;;;2.80;;
1699;SDS011;847;48.058;7.810;2022-07-17T09:43:05;3.63;;;3.33;;
1699;SDS011;847;48.058;7.810;2022-07-17T09:45:32;3.37;;;2.80;;
1699;SDS011;847;48.058;7.810;2022-07-17T09:48:00;2.93;;;2.70;;
1699;SDS011;847;48.058;7.810;2022-07-17T09:50:28;2.97;;;2.73;;
1699;SDS011;847;48.058;7.810;2022-07-17T09:52:57;5.37;;;3.13;;
1699;SDS011;847;48.058;7.810;2022-07-17T09:55:26;3.10;;;2.90;;
1699;SDS011;847;48.058;7.810;2022-07-17T09:57:56;4.37;;;2.80;;
1699;SDS011;847;48.058;7.810;2022-07-17T10:00:25;3.70;;;3.37;;
1699;SDS011;847;48.058;7.810;2022-07-17T10:02:52;5.17;;;3.03;;
1699;SDS011;847;48.058;7.810;2022-07-17T10:05:19;3.10;;;2.57;;
1699;SDS011;847;48.058;7.810;2022-07-17T10:07:46;5.57;;;2.97;;
1699;SDS011;847;48.058;7.810;2022-07-17T10:10:16;3.80;;;3.50;;
1699;SDS011;847;48.058;7.810;2022-07-17T10:12:46;8.50;;;6.00;;
1699;SDS011;847;48.058;7.810;2022-07-17T10:15:14;3.40;;;3.00;;
1699;SDS011;847;48.058;7.810;2022-07-17T10:17:42;2.60;;;2.40;;
1699;SDS011;847;48.058;7.810;2022-07-17T10:20:09;3.30;;;3.00;;
1699;SDS011;847;48.058;7.810;2022-07-17T10:22:41;3.40;;;3.10;;
1699;SDS011;847;48.058;7.810;2022-07-17T10:25:11;4.77;;;3.30;;
1699;SDS011;847;48.058;7.810;2022-07-17T10:27:46;3.50;;;2.93;;
1699;SDS011;847;48.058;7.810;2022-07-17T10:30:18;3.03;;;2.83;;
1699;SDS011;847;48.058;7.810;2022-07-17T10:32:52;3.80;;;2.90;;
1699;SDS011;847;48.058;7.810;2022-07-17T10:35:20;2.60;;;2.40;;
1699;SDS011;847;48.058;7.810;2022-07-17T10:37:47;3.57;;;2.60;;
1699;SDS011;847;48.058;7.810;2022-07-17T10:40:16;3.43;;;2.83;;
1699;SDS011;847;48.058;7.810;2022-07-17T10:42:50;3.60;;;3.07;;
1699;SDS011;847;48.058;7.810;2022-07-17T10:45:21;2.90;;;2.70;;
1699;SDS011;847;48.058;7.810;2022-07-17T10:47:51;3.17;;;2.97;;
1699;SDS011;847;48.058;7.810;2022-07-17T10:50:21;4.00;;;3.00;;
1699;SDS011;847;48.058;7.810;2022-07-17T10:55:44;4.27;;;2.70;;
1699;SDS011;847;48.058;7.810;2022-07-17T10:58:17;3.10;;;2.50;;
1699;SDS011;847;48.058;7.810;2022-07-17T11:00:55;3.70;;;2.80;;
1699;SDS011;847;48.058;7.810;2022-07-17T11:03:23;3.73;;;2.87;;
1699;SDS011;847;48.058;7.810;2022-07-17T11:05:50;2.73;;;2.40;;
1699;SDS011;847;48.058;7.810;2022-07-17T11:08:16;5.10;;;3.43;;
1699;SDS011;847;48.058;7.810;2022-07-17T11:10:44;3.40;;;3.03;;
1699;SDS011;847;48.058;7.810;2022-07-17T11:13:12;3.93;;;2.87;;
1699;SDS011;847;48.058;7.810;2022-07-17T11:15:43;3.13;;;2.80;;
1699;SDS011;847;48.058;7.810;2022-07-17T11:18:12;4.43;;;3.10;;
1699;SDS011;847;48.058;7.810;2022-07-17T11:20:47;3.73;;;2.93;;
1699;SDS011;847;48.058;7.810;2022-07-17T11:23:14;3.63;;;3.13;;
1699;SDS011;847;48.058;7.810;2022-07-17T11:25:50;3.60;;;3.30;;
1699;SDS011;847;48.058;7.810;2022-07-17T11:28:26;3.40;;;2.67;;
1699;SDS011;847;48.058;7.810;2022-07-17T11:30:58;4.90;;;2.60;;
1699;SDS011;847;48.058;7.810;2022-07-17T11:33:25;3.40;;;2.87;;
1699;SDS011;847;48.058;7.810;2022-07-17T11:35:52;3.33;;;2.63;;
1699;SDS011;847;48.058;7.810;2022-07-17T11:38:24;2.90;;;2.60;;
1699;SDS011;847;48.058;7.810;2022-07-17T11:40:52;4.00;;;3.17;;
1699;SDS011;847;48.058;7.810;2022-07-17T11:43:18;5.33;;;2.60;;
1699;SDS011;847;48.058;7.810;2022-07-17T11:45:45;2.90;;;2.20;;
1699;SDS011;847;48.058;7.810;2022-07-17T11:48:14;5.87;;;2.60;;
1699;SDS011;847;48.058;7.810;2022-07-17T11:50:41;3.43;;;3.13;;
1699;SDS011;847;48.058;7.810;2022-07-17T11:53:19;2.60;;;2.40;;
1699;SDS011;847;48.058;7.810;2022-07-17T11:55:56;2.90;;;2.67;;
1699;SDS011;847;48.058;7.810;2022-07-17T11:58:22;5.17;;;3.17;;
1699;SDS011;847;48.058;7.810;2022-07-17T12:00:58;3.30;;;2.63;;
1699;SDS011;847;48.058;7.810;2022-07-17T12:03:28;4.90;;;2.67;;
1699;SDS011;847;48.058;7.810;2022-07-17T12:05:54;2.73;;;2.53;;
1699;SDS011;847;48.058;7.810;2022-07-17T12:08:21;5.07;;;3.17;;
1699;SDS011;847;48.058;7.810;2022-07-17T12:10:58;2.67;;;2.43;;
1699;SDS011;847;48.058;7.810;2022-07-17T12:13:32;4.70;;;2.93;;
1699;SDS011;847;48.058;7.810;2022-07-17T12:16:23;4.67;;;2.20;;
1699;SDS011;847;48.058;7.810;2022-07-17T12:18:57;2.77;;;2.50;;
1699;SDS011;847;48.058;7.810;2022-07-17T12:21:30;2.57;;;2.37;;
1699;SDS011;847;48.058;7.810;2022-07-17T12:24:00;7.70;;;2.90;;
1699;SDS011;847;48.058;7.810;2022-07-17T12:26:29;3.80;;;2.47;;
1699;SDS011;847;48.058;7.810;2022-07-17T12:28:56;2.50;;;2.30;;
1699;SDS011;847;48.058;7.810;2022-07-17T12:31:23;4.53;;;2.90;;
1699;SDS011;847;48.058;7.810;2022-07-17T12:33:51;4.07;;;2.50;;
1699;SDS011;847;48.058;7.810;2022-07-17T12:36:21;2.90;;;2.70;;
1699;SDS011;847;48.058;7.810;2022-07-17T12:38:48;2.93;;;2.57;;
1699;SDS011;847;48.058;7.810;2022-07-17T12:41:15;2.60;;;2.43;;
1699;SDS011;847;48.058;7.810;2022-07-17T12:43:42;6.30;;;3.63;;
1699;SDS011;847;48.058;7.810;2022-07-17T12:46:09;3.97;;;2.47;;
1699;SDS011;847;48.058;7.810;2022-07-17T12:48:36;2.60;;;2.40;;
1699;SDS011;847;48.058;7.810;2022-07-17T12:51:05;2.77;;;2.43;;
1699;SDS011;847;48.058;7.810;2022-07-17T12:53:33;2.73;;;2.53;;
1699;SDS011;847;48.058;7.810;2022-07-17T12:56:01;4.40;;;2.63;;
1699;SDS011;847;48.058;7.810;2022-07-17T12:58:28;2.80;;;2.50;;
1699;SDS011;847;48.058;7.810;2022-07-17T13:00:55;4.23;;;2.60;;
1699;SDS011;847;48.058;7.810;2022-07-17T13:03:22;3.57;;;3.03;;
1699;SDS011;847;48.058;7.810;2022-07-17T13:05:49;4.13;;;2.70;;
1699;SDS011;847;48.058;7.810;2022-07-17T13:08:16;3.00;;;2.57;;
1699;SDS011;847;48.058;7.810;2022-07-17T13:10:45;3.27;;;2.57;;
1699;SDS011;847;48.058;7.810;2022-07-17T13:13:12;5.57;;;3.40;;
1699;SDS011;847;48.058;7.810;2022-07-17T13:15:39;6.83;;;2.97;;
1699;SDS011;847;48.058;7.810;2022-07-17T13:18:06;3.10;;;2.60;;
1699;SDS011;847;48.058;7.810;2022-07-17T13:20:33;4.60;;;3.10;;
1699;SDS011;847;48.058;7.810;2022-07-17T13:23:00;2.93;;;2.73;;
1699;SDS011;847;48.058;7.810;2022-07-17T13:25:27;3.77;;;2.97;;
1699;SDS011;847;48.058;7.810;2022-07-17T13:27:55;3.47;;;2.67;;
1699;SDS011;847;48.058;7.810;2022-07-17T13:30:22;2.63;;;2.43;;
1699;SDS011;847;48.058;7.810;2022-07-17T13:32:49;3.47;;;2.43;;
1699;SDS011;847;48.058;7.810;2022-07-17T13:35:16;3.23;;;3.03;;
1699;SDS011;847;48.058;7.810;2022-07-17T13:37:43;4.13;;;2.63;;
1699;SDS011;847;48.058;7.810;2022-07-17T13:40:10;7.43;;;3.30;;
1699;SDS011;847;48.058;7.810;2022-07-17T13:42:37;3.40;;;2.60;;
1699;SDS011;847;48.058;7.810;2022-07-17T13:45:06;3.60;;;2.87;;
1699;SDS011;847;48.058;7.810;2022-07-17T13:47:34;2.53;;;2.33;;
1699;SDS011;847;48.058;7.810;2022-07-17T13:50:01;3.23;;;2.77;;
1699;SDS011;847;48.058;7.810;2022-07-17T13:52:28;2.80;;;2.60;;
1699;SDS011;847;48.058;7.810;2022-07-17T13:54:55;2.67;;;2.43;;
1699;SDS011;847;48.058;7.810;2022-07-17T13:57:23;3.30;;;2.47;;
1699;SDS011;847;48.058;7.810;2022-07-17T13:59:50;2.73;;;2.43;;
1699;SDS011;847;48.058;7.810;2022-07-17T14:02:18;2.70;;;2.50;;
1699;SDS011;847;48.058;7.810;2022-07-17T14:04:45;2.93;;;2.73;;
1699;SDS011;847;48.058;7.810;2022-07-17T14:07:11;2.83;;;2.57;;
1699;SDS011;847;48.058;7.810;2022-07-17T14:09:39;3.60;;;2.60;;
1699;SDS011;847;48.058;7.810;2022-07-17T14:12:06;2.97;;;2.27;;
1699;SDS011;847;48.058;7.810;2022-07-17T14:14:34;3.70;;;2.40;;
1699;SDS011;847;48.058;7.810;2022-07-17T14:17:04;5.40;;;2.87;;
1699;SDS011;847;48.058;7.810;2022-07-17T14:19:32;2.40;;;2.30;;
1699;SDS011;847;48.058;7.810;2022-07-17T14:22:00;3.00;;;2.70;;
1699;SDS011;847;48.058;7.810;2022-07-17T14:24:27;2.70;;;2.50;;
1699;SDS011;847;48.058;7.810;2022-07-17T14:26:54;3.30;;;3.10;;
1699;SDS011;847;48.058;7.810;2022-07-17T14:29:20;2.97;;;2.40;;
1699;SDS011;847;48.058;7.810;2022-07-17T14:31:47;2.90;;;2.27;;
1699;SDS011;847;48.058;7.810;2022-07-17T14:34:14;2.30;;;2.10;;
1699;SDS011;847;48.058;7.810;2022-07-17T14:36:43;2.60;;;2.40;;
1699;SDS011;847;48.058;7.810;2022-07-17T14:39:10;3.17;;;2.60;;
1699;SDS011;847;48.058;7.810;2022-07-17T14:41:37;2.67;;;2.47;;
1699;SDS011;847;48.058;7.810;2022-07-17T14:44:04;2.57;;;2.37;;
1699;SDS011;847;48.058;7.810;2022-07-17T14:46:32;3.00;;;2.80;;
1699;SDS011;847;48.058;7.810;2022-07-17T14:48:58;4.97;;;2.50;;
1699;SDS011;847;48.058;7.810;2022-07-17T14:51:25;3.53;;;2.57;;
1699;SDS011;847;48.058;7.810;2022-07-17T14:53:53;3.07;;;2.60;;
1699;SDS011;847;48.058;7.810;2022-07-17T14:56:20;2.87;;;2.60;;
1699;SDS011;847;48.058;7.810;2022-07-17T14:58:47;3.30;;;2.60;;
1699;SDS011;847;48.058;7.810;2022-07-17T15:01:14;3.87;;;2.60;;
1699;SDS011;847;48.058;7.810;2022-07-17T15:03:41;2.80;;;2.53;;
1699;SDS011;847;48.058;7.810;2022-07-17T15:06:08;2.50;;;2.30;;
1699;SDS011;847;48.058;7.810;2022-07-17T15:08:34;4.10;;;2.60;;
1699;SDS011;847;48.058;7.810;2022-07-17T15:11:03;3.27;;;2.60;;
1699;SDS011;847;48.058;7.810;2022-07-17T15:13:30;2.90;;;2.60;;
1699;SDS011;847;48.058;7.810;2022-07-17T15:15:57;2.60;;;2.33;;
1699;SDS011;847;48.058;7.810;2022-07-17T15:18:24;3.10;;;2.80;;
1699;SDS011;847;48.058;7.810;2022-07-17T15:20:51;2.40;;;2.20;;
1699;SDS011;847;48.058;7.810;2022-07-17T15:23:18;3.80;;;2.50;;
1699;SDS011;847;48.058;7.810;2022-07-17T15:25:45;2.60;;;2.40;;
1699;SDS011;847;48.058;7.810;2022-07-17T15:28:13;2.60;;;2.40;;
1699;SDS011;847;48.058;7.810;2022-07-17T15:30:40;2.90;;;2.57;;
1699;SDS011;847;48.058;7.810;2022-07-17T15:33:07;2.20;;;2.10;;
1699;SDS011;847;48.058;7.810;2022-07-17T15:35:33;2.30;;;2.10;;